Crawford, Colorado
Current Conditions -  °F | °C
As of 6:53 AM on Friday 24 Oct 2014 (Local Time) from KMTJ Reporting Station
Clear Clear  
Wind Chill: 35°   Ceiling: Unl
Heat Index: 41°   Visibility: 10mi
Dew Point: 29°   Wind: 9mph
Humidity: 62%   Direction: 170°S
Pressure: 30.34"   Gusts: NA
Location:  38.7°N, 107.61°W
Report Text: KMTJ 241253Z AUTO 17008KT 10SM CLR 05/M02 A3034 RMK AO2 SLP236 T00501017
Loading
Personal Weather Stations






























Interactive Weather Map
Tropical Storm Tracking
New forecast layout! Learn more

10-Day Weather Forecast

Advertisements
Track Severe Weather on mobile